METAR Data

Data at: 2336 UTC 26 Feb 2020

METAR for:CYZX (Greenwood (Mil), NS, CN)
Text:CYZX 262300Z 07011KT 15SM FEW043 BKN075 OVC120 06/M02 A3007 RMK SC2AC3AC2 SLP185
Temperature: 6.0°C ( 43°F)
Dewpoint: -2.0°C ( 28°F) [RH = 56%]
Pressure (altimeter):30.07 inches Hg (1018.4 mb) [Sea level pressure: 1018.5 mb]
Winds:from the ENE (70 degrees) at 13 MPH (11 knots; 5.7 m/s)
Visibility: 15 sm ( 24 km)
Ceiling:7500 feet AGL
Clouds: few clouds at 4300 feet AGL, broken clouds at 7500 feet AGL, overcast cloud deck at 12000 feet AGL